createdAt,value
2022-12-20T00:02:50.159Z,-0.72
2022-12-20T00:05:51.754Z,-0.73
2022-12-20T00:08:54.528Z,-0.76
2022-12-20T00:11:55.902Z,-0.82
2022-12-20T00:14:57.448Z,-0.71
2022-12-20T00:17:59.549Z,-0.70
2022-12-20T00:21:01.513Z,-0.68
2022-12-20T00:24:03.187Z,-0.68
2022-12-20T00:27:04.734Z,-0.73
2022-12-20T00:30:07.169Z,-0.70
2022-12-20T00:33:08.707Z,-0.57
2022-12-20T00:36:10.289Z,-0.55
2022-12-20T00:39:11.882Z,-0.66
2022-12-20T00:42:13.375Z,-0.65
2022-12-20T00:45:14.976Z,-0.61
2022-12-20T00:48:16.492Z,-0.58
2022-12-20T00:51:20.066Z,-0.59
2022-12-20T00:54:21.645Z,-0.57
2022-12-20T00:57:23.184Z,-0.42
2022-12-20T01:00:24.705Z,-0.42
2022-12-20T01:03:26.481Z,-0.44
2022-12-20T01:06:28.277Z,-0.38
2022-12-20T01:09:29.873Z,-0.39
2022-12-20T01:12:31.396Z,-0.40
2022-12-20T01:15:33.648Z,-0.40
2022-12-20T01:18:35.196Z,-0.31
2022-12-20T01:21:36.969Z,-0.37
2022-12-20T01:24:38.499Z,-0.37
2022-12-20T01:27:40.110Z,-0.44
2022-12-20T01:30:42.133Z,-0.43
2022-12-20T01:33:43.906Z,-0.45
2022-12-20T01:36:45.438Z,-0.37
2022-12-20T01:39:46.959Z,-0.43
2022-12-20T01:42:48.509Z,-0.34
2022-12-20T01:45:50.635Z,-0.28
2022-12-20T01:49:14.487Z,-0.28
2022-12-20T01:52:20.817Z,-0.32
2022-12-20T01:55:23.897Z,-0.28
2022-12-20T01:58:25.443Z,-0.31
2022-12-20T02:01:27.090Z,-0.36
2022-12-20T02:04:28.714Z,-0.43
2022-12-20T02:07:31.224Z,-0.35
2022-12-20T02:10:42.318Z,-0.35
2022-12-20T02:14:17.972Z,-0.30
2022-12-20T02:17:34.630Z,-0.29
2022-12-20T02:20:39.118Z,-0.22
2022-12-20T02:23:49.727Z,-0.13
2022-12-20T02:27:09.673Z,-0.05
2022-12-20T02:30:15.887Z,-0.16
2022-12-20T02:33:17.390Z,0.06
2022-12-20T02:36:18.956Z,0.08
2022-12-20T02:39:20.654Z,0.06
2022-12-20T02:42:23.645Z,0.02
2022-12-20T02:45:31.315Z,0.00
2022-12-20T02:48:33.693Z,0.09
2022-12-20T02:51:35.482Z,-0.04
2022-12-20T02:54:37.588Z,0.12
2022-12-20T02:58:03.194Z,0.12
2022-12-20T03:01:10.462Z,0.19
2022-12-20T03:04:14.917Z,0.15
2022-12-20T03:07:16.900Z,0.11
2022-12-20T03:10:18.735Z,0.12
2022-12-20T03:13:21.313Z,0.10
2022-12-20T03:16:22.964Z,0.10
2022-12-20T03:19:24.823Z,0.11
2022-12-20T03:22:27.260Z,0.11
2022-12-20T03:25:29.085Z,0.13
2022-12-20T03:28:30.754Z,0.11
2022-12-20T03:31:32.716Z,0.15
2022-12-20T03:34:34.489Z,0.15
2022-12-20T03:37:36.464Z,0.19
2022-12-20T03:40:38.183Z,0.27
2022-12-20T03:43:39.904Z,0.25
2022-12-20T03:46:41.643Z,0.23
2022-12-20T03:49:43.398Z,0.42
2022-12-20T03:52:45.182Z,0.49
2022-12-20T03:55:46.942Z,0.50
2022-12-20T03:58:48.706Z,0.46
2022-12-20T04:01:50.574Z,0.38
2022-12-20T04:04:52.499Z,0.44
2022-12-20T04:07:54.200Z,0.38
2022-12-20T04:11:14.649Z,0.45
2022-12-20T04:14:18.078Z,0.29
2022-12-20T04:17:19.863Z,0.38
2022-12-20T04:20:21.809Z,0.42
2022-12-20T04:23:23.649Z,0.39
2022-12-20T04:26:25.435Z,0.48
2022-12-20T04:29:27.221Z,0.58
2022-12-20T04:32:28.824Z,0.47
2022-12-20T04:35:30.595Z,0.32
2022-12-20T04:38:32.379Z,0.30
2022-12-20T04:41:34.057Z,0.41
2022-12-20T04:44:35.807Z,0.38
2022-12-20T04:47:38.640Z,0.33
2022-12-20T04:50:40.359Z,0.28
2022-12-20T04:53:48.212Z,0.36
2022-12-20T04:56:49.991Z,0.28
2022-12-20T04:59:51.762Z,0.29
2022-12-20T05:02:53.552Z,0.25
2022-12-20T05:05:55.357Z,0.22
2022-12-20T05:08:57.061Z,0.25
2022-12-20T05:11:58.729Z,0.20
2022-12-20T05:15:00.438Z,0.25
2022-12-20T05:18:02.048Z,0.19
2022-12-20T05:21:22.454Z,0.34
2022-12-20T05:24:42.824Z,0.32
2022-12-20T05:27:44.461Z,0.38
2022-12-20T05:30:46.255Z,0.37
2022-12-20T05:33:47.914Z,0.33
2022-12-20T05:36:49.582Z,0.33
2022-12-20T05:39:51.316Z,0.32
2022-12-20T05:42:52.975Z,0.52
2022-12-20T05:45:55.322Z,0.60
2022-12-20T05:48:57.018Z,0.62
2022-12-20T05:51:58.798Z,0.70
2022-12-20T05:55:00.692Z,0.62
2022-12-20T05:58:02.395Z,0.62
2022-12-20T06:01:06.379Z,0.79
2022-12-20T06:04:08.214Z,0.81
2022-12-20T06:07:09.943Z,0.70
2022-12-20T06:10:14.865Z,0.66
2022-12-20T06:13:54.884Z,0.69
2022-12-20T06:16:56.627Z,0.71
2022-12-20T06:19:58.415Z,0.77
2022-12-20T06:23:00.234Z,0.69
2022-12-20T06:26:09.407Z,0.74
2022-12-20T06:29:14.250Z,0.80
2022-12-20T06:32:15.890Z,0.80
2022-12-20T06:35:17.580Z,0.73
2022-12-20T06:38:19.215Z,0.76
2022-12-20T06:41:20.887Z,0.64
2022-12-20T06:44:22.588Z,0.75
2022-12-20T06:47:24.339Z,0.78
2022-12-20T06:50:29.118Z,0.85
2022-12-20T06:53:30.826Z,0.84
2022-12-20T06:56:36.190Z,0.85
2022-12-20T06:59:42.731Z,0.92
2022-12-20T07:02:45.568Z,0.88
2022-12-20T07:05:52.450Z,0.98
2022-12-20T07:08:54.136Z,0.94
2022-12-20T07:11:58.342Z,0.99
2022-12-20T07:15:01.156Z,1.12
2022-12-20T07:18:03.282Z,1.07
2022-12-20T07:21:05.562Z,0.94
2022-12-20T07:24:07.617Z,1.08
2022-12-20T07:27:10.894Z,1.10
2022-12-20T07:30:12.863Z,1.05
2022-12-20T07:33:14.550Z,0.97
2022-12-20T07:36:20.494Z,0.92
2022-12-20T07:39:22.165Z,0.89
2022-12-20T07:42:26.368Z,1.12
2022-12-20T07:45:34.195Z,1.24
2022-12-20T07:48:36.237Z,1.29
2022-12-20T07:51:41.278Z,1.27
2022-12-20T07:54:46.025Z,1.28
2022-12-20T07:57:53.433Z,1.28
2022-12-20T08:00:55.214Z,1.57
2022-12-20T08:04:00.723Z,1.83
2022-12-20T08:07:02.513Z,2.00
2022-12-20T08:10:05.829Z,1.76
2022-12-20T08:13:07.510Z,1.62
2022-12-20T08:16:09.299Z,1.59
2022-12-20T08:19:11.255Z,1.56
2022-12-20T08:22:12.910Z,1.66
2022-12-20T08:25:14.663Z,1.66
2022-12-20T08:28:16.346Z,1.72
2022-12-20T08:31:18.097Z,1.84
2022-12-20T08:34:19.808Z,1.83
2022-12-20T08:37:24.122Z,1.90
2022-12-20T08:40:25.899Z,1.97
2022-12-20T08:43:27.546Z,2.10
2022-12-20T08:46:29.404Z,2.12
2022-12-20T08:49:31.114Z,2.25
2022-12-20T08:52:32.742Z,2.36
2022-12-20T08:55:37.495Z,2.42
2022-12-20T08:58:39.369Z,2.47
2022-12-20T09:01:41.266Z,2.43
2022-12-20T09:04:44.596Z,2.70
2022-12-20T09:07:46.498Z,2.60
2022-12-20T09:10:48.243Z,2.86
2022-12-20T09:13:51.468Z,3.24
2022-12-20T09:16:53.227Z,3.38
2022-12-20T09:19:55.316Z,3.16
2022-12-20T09:22:58.699Z,3.18
2022-12-20T09:26:08.080Z,3.27
2022-12-20T09:29:09.729Z,3.33
2022-12-20T09:32:11.687Z,3.46
2022-12-20T09:35:17.827Z,3.42
2022-12-20T09:38:22.830Z,3.38
2022-12-20T09:41:27.595Z,3.39
2022-12-20T09:44:31.285Z,3.37
2022-12-20T09:47:33.817Z,3.26
2022-12-20T09:50:43.741Z,3.20
2022-12-20T09:54:29.282Z,3.14
2022-12-20T09:58:01.796Z,3.03
2022-12-20T10:01:21.466Z,2.92
2022-12-20T10:04:28.735Z,3.03
2022-12-20T10:07:44.479Z,3.11
2022-12-20T10:10:59.746Z,3.24
2022-12-20T10:14:24.539Z,3.29
2022-12-20T10:17:56.160Z,3.45
2022-12-20T10:21:11.344Z,3.68
2022-12-20T10:24:20.846Z,4.17
2022-12-20T10:27:22.543Z,4.11
2022-12-20T10:30:25.369Z,4.09
2022-12-20T10:33:27.065Z,4.14
2022-12-20T10:36:30.375Z,4.26
2022-12-20T10:39:42.857Z,4.13
2022-12-20T10:42:44.593Z,4.13
2022-12-20T10:45:55.801Z,3.96
2022-12-20T10:48:57.476Z,4.24
2022-12-20T10:52:22.353Z,4.33
2022-12-20T10:55:41.240Z,4.04
2022-12-20T10:58:43.037Z,4.00
2022-12-20T11:01:46.129Z,4.01
2022-12-20T11:05:04.124Z,4.09
2022-12-20T11:08:35.339Z,4.42
2022-12-20T11:11:42.309Z,4.63
2022-12-20T11:14:47.726Z,4.69
2022-12-20T11:17:51.731Z,4.90
2022-12-20T11:21:01.204Z,5.13
2022-12-20T11:24:14.605Z,4.99
2022-12-20T11:27:36.575Z,4.97
2022-12-20T11:31:09.236Z,5.19
2022-12-20T11:34:35.603Z,5.12
2022-12-20T11:38:09.156Z,5.28
2022-12-20T11:41:52.489Z,5.22
2022-12-20T11:45:06.658Z,5.51
2022-12-20T11:48:35.726Z,5.33
2022-12-20T11:51:51.206Z,5.52
2022-12-20T11:55:07.410Z,5.48
2022-12-20T11:58:33.101Z,5.62
2022-12-20T12:01:41.200Z,6.09
2022-12-20T12:04:50.980Z,6.30
2022-12-20T12:07:58.287Z,5.63
2022-12-20T12:11:39.993Z,5.98
2022-12-20T12:14:45.931Z,6.13
2022-12-20T12:17:55.602Z,6.07
2022-12-20T12:21:09.957Z,6.15
2022-12-20T12:24:30.433Z,5.92
2022-12-20T12:27:32.116Z,5.82
2022-12-20T12:30:38.162Z,5.90
2022-12-20T12:33:48.585Z,6.12
2022-12-20T12:37:12.132Z,6.10
2022-12-20T12:40:22.112Z,6.17
2022-12-20T12:43:46.311Z,6.13
2022-12-20T12:46:54.175Z,6.38
2022-12-20T12:49:55.969Z,6.30
2022-12-20T12:52:59.198Z,6.31
2022-12-20T12:56:19.328Z,6.19
2022-12-20T12:59:47.424Z,6.58
2022-12-20T13:02:50.949Z,7.11
2022-12-20T13:05:52.920Z,7.14
2022-12-20T13:09:07.674Z,6.77
2022-12-20T13:12:37.145Z,7.01
2022-12-20T13:15:41.591Z,7.03
2022-12-20T13:18:56.761Z,6.80
2022-12-20T13:22:19.039Z,6.64
2022-12-20T13:25:30.654Z,6.43
2022-12-20T13:28:32.338Z,6.51
2022-12-20T13:31:34.198Z,6.50
2022-12-20T13:34:37.915Z,6.73
2022-12-20T13:38:04.628Z,7.09
2022-12-20T13:41:43.939Z,6.90
2022-12-20T13:44:46.640Z,7.04
2022-12-20T13:47:54.291Z,6.84
2022-12-20T13:50:56.404Z,6.89
2022-12-20T13:54:01.527Z,6.94
2022-12-20T13:57:03.034Z,6.95
2022-12-20T14:00:07.437Z,6.97
2022-12-20T14:03:35.938Z,6.78
2022-12-20T14:06:37.808Z,6.70
2022-12-20T14:09:39.427Z,6.64
2022-12-20T14:12:42.377Z,6.32
2022-12-20T14:15:43.908Z,6.26
2022-12-20T14:19:00.916Z,6.05
2022-12-20T14:22:02.491Z,5.75
2022-12-20T14:25:05.582Z,5.77
2022-12-20T14:28:23.069Z,5.70
2022-12-20T14:31:32.277Z,5.88
2022-12-20T14:34:41.296Z,5.78
2022-12-20T14:37:52.059Z,5.65
2022-12-20T14:40:54.503Z,5.71
2022-12-20T14:43:56.791Z,5.60
2022-12-20T14:47:05.083Z,5.55
2022-12-20T14:50:22.543Z,5.39
2022-12-20T14:53:30.483Z,5.51
2022-12-20T14:56:33.805Z,5.44
2022-12-20T14:59:35.447Z,5.55
2022-12-20T15:02:52.520Z,5.47
2022-12-20T15:05:56.027Z,5.53
2022-12-20T15:08:57.616Z,5.46
2022-12-20T15:11:59.258Z,5.35
2022-12-20T15:15:24.111Z,5.43
2022-12-20T15:18:22.612Z,5.30
2022-12-20T15:21:37.435Z,5.80
2022-12-20T15:24:39.795Z,5.44
2022-12-20T15:27:41.373Z,5.12
2022-12-20T15:30:42.943Z,5.11
2022-12-20T15:33:44.555Z,4.97
2022-12-20T15:36:46.681Z,5.03
2022-12-20T15:39:48.213Z,4.87
2022-12-20T15:42:49.837Z,4.85
2022-12-20T15:45:52.653Z,4.78
2022-12-20T15:48:54.207Z,4.92
2022-12-20T15:51:55.854Z,4.76
2022-12-20T15:54:57.414Z,4.69
2022-12-20T15:57:58.963Z,4.81
2022-12-20T16:01:00.875Z,4.70
2022-12-20T16:04:03.001Z,4.65
2022-12-20T16:07:12.084Z,4.74
2022-12-20T16:10:15.372Z,4.71
2022-12-20T16:13:21.688Z,4.69
2022-12-20T16:16:28.489Z,4.66
2022-12-20T16:19:30.064Z,4.65
2022-12-20T16:22:31.691Z,4.65
2022-12-20T16:25:35.924Z,4.55
2022-12-20T16:28:37.520Z,4.53
2022-12-20T16:31:39.967Z,4.64
2022-12-20T16:34:41.399Z,4.65
2022-12-20T16:37:42.936Z,4.73
2022-12-20T16:40:45.752Z,4.71
2022-12-20T16:43:47.664Z,4.60
2022-12-20T16:46:49.324Z,5.17
2022-12-20T16:49:53.155Z,5.10
2022-12-20T16:52:55.321Z,5.13
2022-12-20T16:55:59.778Z,5.82
2022-12-20T16:59:19.125Z,6.14
2022-12-20T17:02:21.987Z,6.41
2022-12-20T17:05:31.779Z,6.32
2022-12-20T17:11:52.348Z,6.01
2022-12-20T17:14:53.995Z,6.26
2022-12-20T17:17:55.715Z,6.11
2022-12-20T17:20:57.321Z,6.14
2022-12-20T17:23:59.020Z,5.97
2022-12-20T17:27:00.849Z,6.04
2022-12-20T17:30:02.433Z,6.09
2022-12-20T17:33:04.084Z,5.87
2022-12-20T17:36:05.911Z,5.86
2022-12-20T17:39:07.662Z,5.92
2022-12-20T17:42:15.700Z,5.87
2022-12-20T17:45:28.333Z,6.09
2022-12-20T17:48:33.897Z,5.92
2022-12-20T17:51:37.318Z,5.76
2022-12-20T17:54:40.260Z,5.78
2022-12-20T17:57:42.175Z,5.80
2022-12-20T18:00:43.907Z,5.72
2022-12-20T18:07:07.199Z,5.42
2022-12-20T18:10:09.373Z,5.38
2022-12-20T18:13:11.036Z,5.43
2022-12-20T18:16:16.800Z,5.30
2022-12-20T18:19:18.696Z,5.45
2022-12-20T18:22:20.332Z,5.67
2022-12-20T18:25:21.991Z,5.76
2022-12-20T18:28:23.666Z,5.62
2022-12-20T18:31:26.687Z,5.59
2022-12-20T18:34:28.398Z,5.61
2022-12-20T18:37:30.105Z,5.64
2022-12-20T18:40:31.760Z,5.65
2022-12-20T18:43:34.055Z,5.65
2022-12-20T18:46:35.751Z,5.58
2022-12-20T18:49:37.645Z,5.53
2022-12-20T18:52:41.372Z,5.52
2022-12-20T18:55:44.841Z,5.43
2022-12-20T18:58:47.536Z,5.42
2022-12-20T19:01:49.353Z,5.51
2022-12-20T19:04:51.137Z,5.38
2022-12-20T19:07:53.248Z,5.34
2022-12-20T19:10:58.322Z,5.23
2022-12-20T19:13:59.984Z,5.24
2022-12-20T19:17:01.810Z,5.15
2022-12-20T19:20:05.323Z,5.19
2022-12-20T19:23:07.064Z,5.10
2022-12-20T19:26:13.730Z,5.18
2022-12-20T19:29:15.460Z,5.05
2022-12-20T19:32:17.143Z,4.97
2022-12-20T19:35:53.644Z,4.98
2022-12-20T19:38:44.432Z,4.86
2022-12-20T19:42:05.983Z,4.69
2022-12-20T19:45:07.911Z,4.70
2022-12-20T19:48:10.429Z,4.73
2022-12-20T19:51:12.378Z,4.85
2022-12-20T19:54:13.980Z,4.86
2022-12-20T19:57:16.094Z,4.75
2022-12-20T20:00:17.886Z,4.76
2022-12-20T20:03:19.859Z,4.94
2022-12-20T20:06:21.709Z,5.02
2022-12-20T20:09:23.525Z,5.19
2022-12-20T20:12:25.178Z,5.03
2022-12-20T20:15:26.868Z,5.15
2022-12-20T20:18:28.742Z,4.87
2022-12-20T20:21:30.339Z,4.76
2022-12-20T20:24:32.095Z,4.84
2022-12-20T20:27:33.702Z,4.73
2022-12-20T20:30:35.273Z,4.66
2022-12-20T20:33:37.550Z,4.60
2022-12-20T20:36:39.431Z,4.62
2022-12-20T20:39:41.461Z,4.69
2022-12-20T20:42:43.320Z,4.62
2022-12-20T20:45:44.977Z,4.60
2022-12-20T20:48:46.706Z,4.73
2022-12-20T20:51:48.358Z,4.60
2022-12-20T20:54:49.962Z,4.58
2022-12-20T20:57:51.599Z,4.62
2022-12-20T21:00:56.909Z,4.59
2022-12-20T21:03:59.067Z,4.44
2022-12-20T21:07:00.780Z,4.49
2022-12-20T21:10:03.061Z,4.38
2022-12-20T21:13:04.971Z,4.42
2022-12-20T21:16:10.871Z,4.39
2022-12-20T21:19:12.659Z,4.38
2022-12-20T21:22:14.298Z,4.41
2022-12-20T21:25:15.930Z,4.44
2022-12-20T21:28:21.304Z,4.52
2022-12-20T21:31:23.165Z,4.39
2022-12-20T21:34:24.701Z,4.30
2022-12-20T21:37:26.628Z,4.30
2022-12-20T21:40:28.455Z,4.34
2022-12-20T21:43:30.073Z,4.26
2022-12-20T21:46:32.181Z,4.35
2022-12-20T21:49:33.945Z,4.30
2022-12-20T21:52:35.572Z,4.52
2022-12-20T21:55:37.115Z,4.47
2022-12-20T21:58:38.718Z,4.59
2022-12-20T22:01:40.411Z,4.60
2022-12-20T22:04:42.056Z,4.85
2022-12-20T22:07:46.322Z,5.18
2022-12-20T22:10:49.886Z,5.06
2022-12-20T22:13:55.723Z,5.28
2022-12-20T22:16:57.334Z,5.12
2022-12-20T22:19:58.878Z,5.07
2022-12-20T22:23:00.614Z,4.96
2022-12-20T22:26:06.451Z,5.24
2022-12-20T22:29:08.082Z,5.20
2022-12-20T22:32:10.428Z,5.18
2022-12-20T22:35:11.922Z,5.12
2022-12-20T22:38:13.460Z,4.93
2022-12-20T22:41:16.833Z,5.01
2022-12-20T22:44:18.366Z,4.92
2022-12-20T22:47:20.040Z,5.00
2022-12-20T22:50:21.577Z,4.86
2022-12-20T22:53:23.113Z,4.85
2022-12-20T22:56:24.612Z,4.76
2022-12-20T22:59:26.294Z,4.89
2022-12-20T23:02:28.042Z,4.94
2022-12-20T23:05:29.731Z,5.01
2022-12-20T23:08:32.629Z,5.65
2022-12-20T23:11:52.716Z,6.11
2022-12-20T23:15:26.573Z,6.12
2022-12-20T23:18:28.074Z,5.98
2022-12-20T23:21:48.180Z,6.26
2022-12-20T23:24:49.671Z,6.38
2022-12-20T23:27:51.486Z,6.18
2022-12-20T23:30:53.149Z,6.41
2022-12-20T23:33:54.679Z,6.33
2022-12-20T23:36:56.218Z,6.23
2022-12-20T23:39:57.744Z,6.25
2022-12-20T23:42:59.297Z,5.59
2022-12-20T23:46:05.043Z,5.85
2022-12-20T23:49:06.690Z,5.87
2022-12-20T23:52:08.236Z,5.90
2022-12-20T23:55:09.891Z,6.10
2022-12-20T23:58:11.487Z,5.98
